Terminal Aerodrome Forecast
Issued by NWS Sioux Falls, SD

Home | Current Version | Previous Version | Text Only | Print | Product List | Glossary On
Versions: 1 2 3 4 5 6 7 8 9 10 11 12 13 14 15 16
000
FTUS43 KFSD 210532
TAFFSD
TAF
KFSD 210532Z 2106/2206 05006KT P6SM BKN040
     FM210900 06006KT P6SM BKN015
     FM211600 10006KT P6SM VCTS BKN030CB
     FM212100 02005KT P6SM -SHRA VCTS OVC060CB
     FM220000 36005KT P6SM VCTS BKN050CB
     FM220400 36005KT P6SM SCT070=

USA.gov is the U.S. government's official web portal to all federal, state and local government web resources and services.